Date,TemperatureHighF,TemperatureAvgF,TemperatureLowF,DewpointHighF,DewpointAvgF,DewpointLowF,HumidityHigh,HumidityAvg,HumidityLow,PressureMaxIn,PressureMinIn,WindSpeedMaxMPH,WindSpeedAvgMPH,GustSpeedMaxMPH,PrecipitationSumIn
2013-1-1,37.8,32.9,24.4,37.5,30.2,19.5,100,90,78,30.31,30.11,5,1,11,0.00
2013-1-2,38.1,26.5,19.0,19.6,16.5,11.3,87,68,34,30.38,30.28,3,0,5,0.01
2013-1-3,49.6,29.4,16.9,29.1,21.9,14.5,93,76,43,30.50,30.08,4,0,8,0.00
2013-1-4,53.4,32.3,19.8,33.2,24.9,18.1,94,77,40,30.16,30.04,4,0,10,0.00
2013-1-5,45.9,35.5,21.9,33.7,28.9,20.2,95,78,60,30.38,29.97,5,1,10,0.01
2013-1-6,50.0,35.7,23.0,36.9,29.3,20.8,97,78,55,30.48,30.22,6,2,13,0.00
2013-1-7,57.6,32.6,19.4,31.3,23.7,17.6,95,74,29,30.57,30.29,4,0,7,0.00
2013-1-8,62.8,40.9,23.9,36.4,30.2,21.5,94,70,33,30.37,30.26,5,0,11,0.00
2013-1-9,61.2,51.0,41.9,49.4,43.0,35.6,91,75,59,30.52,30.31,4,1,7,0.02
2013-1-10,66.2,55.5,45.9,63.7,53.3,38.3,100,93,64,30.50,29.94,8,1,17,0.51
2013-1-11,68.0,58.0,49.1,59.9,52.5,46.7,94,83,58,30.08,29.95,8,2,17,0.06
2013-1-12,70.2,64.3,54.7,67.1,62.9,53.0,100,95,86,30.05,29.78,8,1,19,1.65
2013-1-13,57.9,35.0,25.7,57.9,33.2,20.7,100,93,81,30.39,29.84,8,1,15,1.91
2013-1-14,30.9,25.5,21.4,21.7,19.8,16.4,87,79,65,30.52,30.39,0,0,0,0.00
2013-1-15,35.6,28.6,23.5,27.9,23.9,20.6,91,83,62,30.42,30.16,7,1,12,0.00
2013-1-16,34.9,31.8,29.3,27.8,26.8,25.4,92,82,69,30.23,30.13,3,0,7,0.00
2013-1-17,51.1,36.8,27.0,36.7,28.9,23.0,94,74,50,30.57,30.19,7,1,17,0.08
2013-1-18,56.3,37.8,22.5,31.5,26.2,20.3,93,66,36,30.65,30.37,7,1,14,0.00
2013-1-19,63.9,49.0,37.6,36.4,32.7,26.7,71,55,34,30.38,30.14,9,3,19,0.00
2013-1-20,57.0,42.2,30.0,36.3,24.2,8.7,90,54,15,30.40,30.21,5,1,10,0.00
2013-1-21,41.4,30.3,23.5,19.7,12.8,4.2,67,49,30,30.44,30.31,7,2,13,0.00
2013-1-22,30.4,23.4,18.1,7.1,2.2,-2.6,53,40,24,30.56,30.42,6,1,9,0.00
2013-1-23,55.0,33.6,17.4,31.0,20.0,7.0,89,60,32,30.44,30.23,5,1,11,0.00
2013-1-24,38.7,30.9,22.6,28.7,13.9,-19.4,88,50,35,30.64,30.33,8,3,15,0.00
2013-1-25,48.9,34.1,27.7,29.4,24.2,8.2,91,69,37,30.33,30.20,4,0,8,0.02
2013-1-26,56.3,36.4,25.3,31.1,24.2,20.3,94,65,28,30.46,30.32,4,1,9,0.00
2013-1-27,52.5,39.2,26.4,46.5,35.6,20.1,96,87,69,30.40,30.16,4,0,11,0.13
2013-1-28,63.3,58.8,52.3,59.7,54.8,46.4,96,87,71,30.20,30.11,9,2,19,0.08
2013-1-29,73.8,65.4,54.3,63.5,59.5,53.6,100,82,64,30.11,29.51,11,3,24,0.40
2013-1-30,60.1,47.5,33.6,54.3,41.6,20.4,100,81,58,30.01,29.51,11,3,24,0.50
2013-1-31,48.6,35.3,21.7,33.2,23.1,7.6,92,62,42,30.41,30.01,9,3,20,0.02
2013-2-1,39.0,21.4,14.0,15.6,7.2,1.9,65,55,29,30.62,30.38,8,2,14,0.00
2013-2-2,50.4,35.7,25.3,31.4,24.0,15.6,82,63,45,30.39,30.16,7,1,14,0.00
2013-2-3,48.6,37.1,27.7,33.0,25.9,20.7,88,66,35,30.25,30.08,8,1,22,0.00
2013-2-4,50.9,40.0,27.5,40.4,32.4,21.9,93,76,42,30.17,29.96,9,2,17,0.02
2013-2-5,129.9,48.2,35.1,86.6,39.1,32.2,100,75,28,30.17,30.00,8,1,51,0.00
2013-2-6,61.9,44.3,29.1,40.6,30.9,-13.6,100,63,10,30.35,30.17,5,1,8,0.01
2013-2-7,70.3,53.5,34.2,56.3,43.3,30.7,100,71,40,30.17,29.95,7,1,13,0.38
2013-2-8,50.9,41.8,34.5,47.8,34.3,27.6,92,75,52,30.45,30.02,8,3,16,0.01
2013-2-9,54.5,41.8,32.5,35.8,30.8,26.8,80,66,43,30.45,30.14,5,1,9,0.00
2013-2-10,58.6,52.8,45.0,55.3,45.7,20.0,93,78,25,30.14,29.79,11,3,22,0.40
2013-2-11,59.9,49.4,37.9,53.3,32.8,28.5,88,54,33,30.21,29.93,10,3,16,0.00
2013-2-12,54.5,43.3,28.4,36.3,31.3,26.7,95,65,42,30.22,29.91,4,1,7,0.01
2013-2-13,52.5,42.1,37.6,39.6,36.5,34.9,92,81,55,30.00,29.87,7,2,14,0.19
2013-2-14,65.1,49.0,37.9,42.0,38.5,33.7,92,70,40,30.08,29.96,8,2,14,0.00
2013-2-15,52.0,41.8,31.5,34.6,26.0,14.7,88,56,25,30.29,30.09,8,2,15,0.00
2013-2-16,44.1,32.5,25.3,20.4,13.9,3.6,76,49,19,30.29,30.22,8,2,14,0.00
2013-2-17,54.7,36.6,20.1,27.3,20.3,10.9,81,54,28,30.30,30.10,6,1,11,0.00
2013-2-18,64.0,49.9,38.3,49.5,38.8,23.8,100,68,34,30.10,29.75,15,4,31,0.74
2013-2-19,50.7,40.3,30.2,38.8,20.8,5.0,84,49,18,30.34,29.91,11,4,22,0.00
2013-2-20,36.1,29.3,25.5,19.2,15.5,12.0,72,56,43,30.42,30.30,5,2,10,0.00
2013-2-21,37.6,31.5,26.1,37.1,25.1,17.5,100,78,51,30.33,29.87,8,2,15,0.84
2013-2-22,48.2,40.3,34.2,40.6,35.5,26.8,99,83,68,30.13,29.86,9,3,15,0.01
2013-2-23,52.7,38.4,28.2,29.4,25.7,23.6,83,63,36,30.12,30.02,5,1,10,0.00
2013-2-24,61.0,40.3,24.3,30.0,26.6,22.3,93,62,30,30.20,30.05,4,1,8,0.00
2013-2-25,63.3,48.4,34.5,40.0,29.8,25.5,81,51,25,30.08,29.52,8,2,14,0.12
2013-2-26,52.9,44.8,39.7,49.6,41.2,34.7,100,87,70,29.73,29.38,11,4,21,0.41
2013-2-27,41.7,38.5,34.3,36.1,32.5,28.7,89,79,60,29.94,29.73,10,4,19,0.04
2013-2-28,41.4,36.5,34.0,32.6,30.1,26.6,94,78,65,30.13,29.94,8,2,14,0.00
2013-3-1,43.0,35.1,32.2,37.4,32.6,29.6,97,90,77,30.17,30.08,7,1,15,0.12
2013-3-2,34.9,32.3,30.7,29.9,25.5,16.5,93,76,53,30.25,30.14,9,2,17,0.01
2013-3-3,47.5,36.1,22.5,24.5,19.7,15.8,83,53,31,30.25,30.13,6,1,12,0.00
2013-3-4,63.9,48.4,37.6,41.8,29.2,22.0,81,49,29,30.14,29.83,8,1,19,0.02
2013-3-5,47.3,40.8,33.8,45.5,35.2,20.5,100,81,53,30.11,29.79,12,3,27,0.14
2013-3-6,50.2,38.1,33.1,29.3,26.1,23.5,76,62,43,30.38,30.10,11,4,21,0.00
2013-3-7,55.6,39.0,28.0,32.3,28.0,23.0,85,66,40,30.47,30.36,5,1,8,0.00
2013-3-8,63.5,44.3,28.6,33.9,29.6,25.5,91,60,26,30.50,30.28,6,1,9,0.00
2013-3-9,74.7,55.4,42.8,36.7,33.0,30.1,66,45,21,30.29,29.99,8,1,14,0.00
2013-3-10,69.4,58.9,28.4,56.2,47.8,24.5,100,71,43,30.28,29.76,12,3,26,0.30
2013-3-11,52.9,43.4,39.0,52.9,37.6,29.9,100,80,69,30.05,29.77,9,3,17,0.01
2013-3-12,57.7,43.5,28.8,30.3,27.4,17.9,92,57,26,30.22,30.04,8,2,15,0.00
2013-3-13,50.2,40.3,29.5,28.6,20.9,17.0,73,47,28,30.46,30.22,9,3,17,0.00
2013-3-14,48.6,35.7,23.7,36.0,26.9,19.9,89,72,38,30.46,30.18,7,1,10,0.05
2013-3-15,78.8,55.9,30.0,52.3,42.1,28.5,95,65,36,30.17,29.81,8,2,16,0.00
2013-3-16,73.2,61.8,45.5,52.7,46.9,38.4,78,59,47,30.03,29.77,11,5,22,0.00
2013-3-17,45.5,41.9,38.8,44.1,40.0,36.8,100,93,76,30.11,29.75,10,3,17,0.50
2013-3-18,54.5,45.8,36.1,48.2,42.6,34.7,100,89,64,30.03,29.69,8,2,14,0.86
2013-3-19,59.0,44.5,31.8,38.0,22.4,1.3,100,49,10,30.25,30.03,7,1,13,0.00
2013-3-20,48.4,38.5,29.8,32.6,24.1,15.3,78,57,34,30.26,30.14,11,2,17,0.00
2013-3-21,49.5,36.0,23.4,22.0,16.0,10.3,72,46,25,30.17,30.03,6,1,11,0.00
2013-3-22,44.1,39.2,34.7,28.0,24.4,20.5,63,55,46,30.08,30.00,4,1,8,0.00
2013-3-23,59.4,48.3,40.8,44.3,33.3,26.4,90,57,41,30.04,29.77,6,2,11,0.09
2013-3-24,47.1,40.8,33.4,43.3,38.0,30.3,97,89,78,29.80,29.50,10,3,24,0.12
2013-3-25,39.9,35.3,32.9,33.2,28.9,25.6,94,78,64,30.21,29.80,12,4,23,0.01
2013-3-26,45.5,37.4,29.7,31.0,27.7,24.8,92,70,46,30.40,30.20,7,2,11,0.04
2013-3-27,54.9,41.0,24.4,34.9,27.0,22.7,94,62,35,30.46,30.34,5,1,10,0.00
2013-3-28,66.4,51.0,41.2,42.0,34.0,30.5,72,54,30,30.42,30.29,4,1,8,0.00
2013-3-29,61.7,51.4,44.6,50.8,45.6,37.4,96,81,61,30.32,30.21,6,1,9,0.48
2013-3-30,61.0,49.1,0.0,50.9,46.8,40.9,100,89,60,30.25,29.84,4,1,8,0.38
2013-3-31,70.2,56.3,50.0,53.5,50.0,45.6,100,82,46,29.90,29.79,5,1,10,0.01
2013-4-1,60.6,51.1,42.4,48.6,34.2,25.1,97,55,29,30.13,29.83,8,2,15,0.00
2013-4-2,51.8,43.8,36.9,26.9,22.2,14.4,62,44,23,30.25,30.13,6,1,9,0.00
2013-4-3,56.8,46.5,32.7,25.8,22.5,16.8,67,41,23,30.29,30.13,9,2,14,0.00
2013-4-4,61.2,49.5,42.8,39.7,29.8,22.3,82,47,36,30.14,29.95,4,1,8,0.00
2013-4-5,77.9,56.3,35.8,40.9,35.0,25.9,96,53,17,30.08,29.97,7,1,10,0.00
2013-4-6,78.3,62.0,44.2,44.1,40.2,35.4,85,50,23,30.03,29.81,11,2,21,0.00
2013-4-7,78.1,67.0,59.9,58.4,51.5,41.8,78,58,47,29.93,29.84,10,3,16,0.00
2013-4-8,77.2,68.0,59.9,58.8,55.8,51.0,83,66,51,29.88,29.79,11,3,21,0.00
2013-4-9,85.1,71.9,58.5,66.0,61.4,54.3,87,71,51,29.95,29.81,9,2,17,0.00
2013-4-10,88.9,78.5,66.6,68.4,65.0,61.1,92,64,45,29.87,29.61,11,4,21,0.11
2013-4-11,67.3,57.7,46.4,66.5,55.4,36.4,100,92,68,29.93,29.78,8,2,17,1.12
2013-4-12,66.0,50.7,37.4,42.3,36.9,32.7,92,61,33,30.20,29.92,10,2,17,0.00
2013-4-13,73.4,54.2,35.6,44.6,37.8,32.2,89,58,29,30.28,30.12,5,1,9,0.00
2013-4-14,80.1,63.4,46.2,53.1,46.9,42.3,87,59,31,30.12,29.93,10,2,21,0.00
2013-4-15,86.2,71.6,58.5,62.6,57.8,51.6,85,63,43,30.11,29.99,8,2,14,0.00
2013-4-16,88.9,74.5,66.7,74.0,67.1,59.6,93,79,55,30.24,30.06,8,2,16,0.04
2013-4-17,89.4,75.9,63.1,72.1,66.6,61.5,97,75,50,30.25,29.99,8,2,19,0.00
2013-4-18,83.8,73.1,45.9,67.8,63.4,44.6,100,74,51,30.00,29.78,14,4,27,1.51
2013-4-19,55.0,46.1,39.2,44.6,34.4,30.6,96,65,44,30.25,29.90,8,2,17,0.01
2013-4-20,69.3,50.8,32.7,41.0,33.6,28.4,97,59,24,30.49,30.25,5,1,11,0.00
2013-4-21,73.8,56.0,41.4,38.8,33.7,25.7,72,47,19,30.58,30.42,5,1,10,0.00
2013-4-22,80.8,61.9,43.0,50.0,43.2,35.7,83,54,27,30.44,30.19,6,1,12,0.00
2013-4-23,77.5,66.3,53.8,62.2,54.8,46.7,85,67,53,30.23,30.02,10,2,21,0.00
2013-4-24,57.2,46.5,38.3,52.2,39.8,35.1,96,79,46,30.45,30.07,8,2,22,0.21
2013-4-25,73.4,53.0,33.8,43.9,38.5,33.0,100,64,28,30.53,30.42,6,1,10,0.00
2013-4-26,54.3,51.3,46.6,51.2,46.8,42.1,100,85,67,30.59,30.43,4,0,10,0.45
2013-4-27,62.1,56.0,50.5,60.5,55.2,50.3,100,97,89,30.48,30.07,4,0,11,0.59
2013-4-28,63.7,58.7,54.1,59.3,55.3,52.5,100,89,74,30.14,30.05,4,1,10,0.01
2013-4-29,81.0,63.7,47.5,59.0,54.8,47.2,100,76,46,30.18,30.04,4,1,11,0.00
2013-4-30,91.2,70.8,52.2,60.5,55.8,51.0,100,65,32,30.15,30.06,5,1,11,0.00
2013-5-1,89.4,70.0,55.4,68.2,61.0,53.7,96,75,44,30.25,30.15,5,0,11,0.01
2013-5-2,78.8,69.6,59.9,63.4,59.9,57.0,100,73,49,30.31,30.19,5,1,14,0.14
2013-5-3,77.7,61.7,43.5,63.5,56.8,42.7,100,86,55,30.19,29.93,8,2,21,0.52
2013-5-4,58.6,48.5,42.1,43.7,41.6,38.2,100,79,50,30.14,30.03,5,1,10,0.24
2013-5-5,62.6,52.5,0.0,56.3,48.6,-21.0,100,84,10,30.12,30.00,4,1,8,0.05
2013-5-6,72.5,59.6,54.0,59.2,55.8,52.1,100,88,61,30.09,29.98,6,2,12,0.00
2013-5-7,80.8,65.4,53.2,61.5,57.6,53.0,100,79,45,30.17,30.08,6,1,11,0.01
2013-5-8,88.3,72.4,56.1,60.8,57.1,52.3,100,64,31,30.22,30.13,5,1,11,0.00
2013-5-9,85.5,74.2,60.3,65.0,61.2,58.2,95,66,43,30.22,30.07,11,2,17,0.00
2013-5-10,81.9,70.2,63.1,67.9,63.8,57.2,100,81,58,30.14,29.99,5,1,14,0.18
2013-5-11,78.3,61.3,54.9,59.0,54.0,38.0,89,78,40,30.30,30.12,4,1,9,0.00
2013-5-12,72.0,58.3,43.9,40.0,33.2,21.6,81,44,17,30.37,30.29,8,1,14,0.00
2013-5-13,79.0,60.5,41.2,46.9,38.3,26.7,95,52,20,30.42,30.28,6,1,11,0.00
2013-5-14,90.5,80.6,55.4,61.7,57.6,44.4,68,47,34,30.28,30.07,10,3,19,0.00
2013-5-15,90.0,78.4,68.0,63.8,57.9,52.5,68,51,36,30.21,30.08,8,2,15,0.00
2013-5-16,88.9,76.7,69.6,65.0,61.2,54.6,80,60,41,30.15,30.06,6,1,15,0.00
2013-5-17,78.8,70.8,66.7,67.9,64.5,9.7,92,81,10,30.16,30.08,6,1,11,0.01
2013-5-18,90.3,75.6,67.5,69.6,67.3,66.2,97,77,49,30.17,30.08,4,0,8,0.00
2013-5-19,94.3,80.8,69.1,76.5,71.1,66.3,100,75,46,30.10,30.03,6,1,14,0.00